createdAt,value
2023-01-17T00:00:00.585Z,16.80
2023-01-17T00:02:31.159Z,12.10
2023-01-17T00:05:18.315Z,17.80
2023-01-17T00:08:05.119Z,13.60
2023-01-17T00:10:33.536Z,14.80
2023-01-17T00:13:03.576Z,17.80
2023-01-17T00:15:31.955Z,15.80
2023-01-17T00:18:00.214Z,18.00
2023-01-17T00:20:50.902Z,15.50
2023-01-17T00:23:43.228Z,15.60
2023-01-17T00:26:15.811Z,19.10
2023-01-17T00:28:44.867Z,14.90
2023-01-17T00:31:14.902Z,13.40
2023-01-17T00:33:43.034Z,14.90
2023-01-17T00:36:11.955Z,19.20
2023-01-17T00:38:40.676Z,18.70
2023-01-17T00:41:14.619Z,16.00
2023-01-17T00:44:01.410Z,13.70
2023-01-17T00:46:48.074Z,15.90
2023-01-17T00:49:35.622Z,17.40
2023-01-17T00:52:22.254Z,17.90
2023-01-17T00:55:09.381Z,17.10
2023-01-17T00:57:55.890Z,18.40
2023-01-17T01:00:42.588Z,17.20
2023-01-17T01:03:30.005Z,16.50
2023-01-17T01:06:16.993Z,17.70
2023-01-17T01:09:03.769Z,13.40
2023-01-17T01:11:50.794Z,18.70
2023-01-17T01:14:37.377Z,14.60
2023-01-17T01:17:24.005Z,16.40
2023-01-17T01:20:10.587Z,19.70
2023-01-17T01:22:57.213Z,21.20
2023-01-17T01:25:43.711Z,19.50
2023-01-17T01:28:32.263Z,13.70
2023-01-17T01:31:23.347Z,16.50
2023-01-17T01:33:52.371Z,18.40
2023-01-17T01:36:20.527Z,18.70
2023-01-17T01:38:50.364Z,16.60
2023-01-17T01:41:18.657Z,17.10
2023-01-17T01:43:50.243Z,18.40
2023-01-17T01:46:19.748Z,18.00
2023-01-17T01:49:03.321Z,18.60
2023-01-17T01:51:40.285Z,16.60
2023-01-17T01:54:20.775Z,17.20
2023-01-17T01:56:51.451Z,19.90
2023-01-17T01:59:21.219Z,17.00
2023-01-17T02:03:30.429Z,19.10
2023-01-17T02:06:07.793Z,18.50
2023-01-17T02:08:36.586Z,18.60
2023-01-17T02:11:04.875Z,17.60
2023-01-17T02:13:33.015Z,17.30
2023-01-17T02:16:16.130Z,18.80
2023-01-17T02:18:56.833Z,22.60
2023-01-17T02:21:25.261Z,17.70
2023-01-17T02:24:28.868Z,21.60
2023-01-17T02:27:07.275Z,18.80
2023-01-17T02:29:57.841Z,15.00
2023-01-17T02:32:28.866Z,20.00
2023-01-17T02:35:06.135Z,18.20
2023-01-17T02:37:40.625Z,20.00
2023-01-17T02:40:25.661Z,15.70
2023-01-17T02:42:59.951Z,15.30
2023-01-17T02:45:29.146Z,16.10
2023-01-17T02:47:57.518Z,18.20
2023-01-17T02:50:40.245Z,16.40
2023-01-17T02:53:26.468Z,18.40
2023-01-17T02:56:11.584Z,14.20
2023-01-17T02:59:01.130Z,16.40
2023-01-17T03:01:49.993Z,15.90
2023-01-17T03:04:33.588Z,18.50
2023-01-17T03:07:07.317Z,17.40
2023-01-17T03:09:36.727Z,18.50
2023-01-17T03:12:05.730Z,20.00
2023-01-17T03:14:34.118Z,16.70
2023-01-17T03:17:02.511Z,15.70
2023-01-17T03:19:31.501Z,15.30
2023-01-17T03:21:59.544Z,16.40
2023-01-17T03:24:28.813Z,15.30
2023-01-17T03:26:56.912Z,19.60
2023-01-17T03:29:24.986Z,18.00
2023-01-17T03:31:53.103Z,17.40
2023-01-17T03:34:21.276Z,18.50
2023-01-17T03:36:49.905Z,16.80
2023-01-17T03:39:18.104Z,16.80
2023-01-17T03:41:46.100Z,16.50
2023-01-17T03:44:14.161Z,18.80
2023-01-17T03:46:42.425Z,14.70
2023-01-17T03:49:10.523Z,17.70
2023-01-17T03:51:38.667Z,17.20
2023-01-17T03:54:07.100Z,16.00
2023-01-17T03:56:35.169Z,15.50
2023-01-17T03:59:03.341Z,16.30
2023-01-17T04:01:31.815Z,16.00
2023-01-17T04:03:59.911Z,19.20
2023-01-17T04:06:28.684Z,15.50
2023-01-17T04:08:56.751Z,20.10
2023-01-17T04:11:24.791Z,16.70
2023-01-17T04:13:52.765Z,17.20
2023-01-17T04:16:24.649Z,17.80
2023-01-17T04:18:52.683Z,14.60
2023-01-17T04:21:20.728Z,16.40
2023-01-17T04:23:48.962Z,17.10
2023-01-17T04:26:17.202Z,15.90
2023-01-17T04:28:45.242Z,17.50
2023-01-17T04:31:16.402Z,16.10
2023-01-17T04:36:12.486Z,12.00
2023-01-17T04:38:40.584Z,16.70
2023-01-17T04:41:08.604Z,15.00
2023-01-17T04:43:36.705Z,12.80
2023-01-17T04:46:09.986Z,14.90
2023-01-17T04:48:38.593Z,14.40
2023-01-17T04:51:06.886Z,14.20
2023-01-17T04:53:34.995Z,13.30
2023-01-17T04:56:03.364Z,10.90
2023-01-17T04:58:33.436Z,11.50
2023-01-17T05:01:06.460Z,14.50
2023-01-17T05:03:35.494Z,11.90
2023-01-17T05:06:03.871Z,8.70
2023-01-17T05:08:32.185Z,11.40
2023-01-17T05:11:00.696Z,10.70
2023-01-17T05:13:28.718Z,11.00
2023-01-17T05:15:58.518Z,9.20
2023-01-17T05:18:27.036Z,7.90
2023-01-17T05:21:00.682Z,7.60
2023-01-17T05:23:28.875Z,6.90
2023-01-17T05:25:56.863Z,8.30
2023-01-17T05:28:25.749Z,9.40
2023-01-17T05:30:54.082Z,8.50
2023-01-17T05:33:22.628Z,7.10
2023-01-17T05:35:50.742Z,6.40
2023-01-17T05:38:18.908Z,7.30
2023-01-17T05:40:46.899Z,7.40
2023-01-17T05:43:15.184Z,5.70
2023-01-17T05:45:43.377Z,6.80
2023-01-17T05:48:11.376Z,6.40
2023-01-17T05:50:39.551Z,7.30
2023-01-17T05:53:13.124Z,6.30
2023-01-17T05:55:42.315Z,7.90
2023-01-17T05:58:19.763Z,6.30
2023-01-17T06:00:49.054Z,6.90
2023-01-17T06:03:17.548Z,6.30
2023-01-17T06:05:45.572Z,8.80
2023-01-17T06:08:13.828Z,7.00
2023-01-17T06:10:42.202Z,7.80
2023-01-17T06:13:13.675Z,7.30
2023-01-17T06:15:42.207Z,5.80
2023-01-17T06:18:12.846Z,6.00
2023-01-17T06:20:40.988Z,5.80
2023-01-17T06:23:14.496Z,5.90
2023-01-17T06:25:45.066Z,5.60
2023-01-17T06:28:19.680Z,6.40
2023-01-17T06:30:48.245Z,7.80
2023-01-17T06:33:16.909Z,9.50
2023-01-17T06:35:52.527Z,5.90
2023-01-17T06:38:21.516Z,5.40
2023-01-17T06:40:49.689Z,7.80
2023-01-17T06:43:17.766Z,6.70
2023-01-17T06:45:45.808Z,7.70
2023-01-17T06:48:14.264Z,5.50
2023-01-17T06:50:42.473Z,7.70
2023-01-17T06:53:10.678Z,5.10
2023-01-17T06:55:40.453Z,5.30
2023-01-17T06:58:09.582Z,6.40
2023-01-17T07:00:40.583Z,6.00
2023-01-17T07:03:19.101Z,5.40
2023-01-17T07:05:48.214Z,6.20
2023-01-17T07:08:17.722Z,5.50
2023-01-17T07:10:47.413Z,5.30
2023-01-17T07:13:15.710Z,4.40
2023-01-17T07:15:44.056Z,7.60
2023-01-17T07:18:12.078Z,4.30
2023-01-17T07:20:41.450Z,5.10
2023-01-17T07:23:09.535Z,7.10
2023-01-17T07:25:37.814Z,6.60
2023-01-17T07:28:05.989Z,4.20
2023-01-17T07:30:35.191Z,5.30
2023-01-17T07:33:03.572Z,5.30
2023-01-17T07:35:31.739Z,4.80
2023-01-17T07:37:59.823Z,5.10
2023-01-17T07:40:28.014Z,4.50
2023-01-17T07:43:02.261Z,4.40
2023-01-17T07:45:30.418Z,6.00
2023-01-17T07:47:58.647Z,4.90
2023-01-17T07:50:26.810Z,7.20
2023-01-17T07:52:56.595Z,6.10
2023-01-17T07:55:24.678Z,6.90
2023-01-17T07:57:52.783Z,4.70
2023-01-17T08:00:23.193Z,5.10
2023-01-17T08:02:55.818Z,5.90
2023-01-17T08:05:24.619Z,4.80
2023-01-17T08:07:52.786Z,6.00
2023-01-17T08:10:21.340Z,6.40
2023-01-17T08:12:50.431Z,5.40
2023-01-17T08:15:19.056Z,5.20
2023-01-17T08:17:48.720Z,5.10
2023-01-17T08:20:17.128Z,7.10
2023-01-17T08:22:45.700Z,6.30
2023-01-17T08:25:13.910Z,9.60
2023-01-17T08:27:42.072Z,6.30
2023-01-17T08:30:10.760Z,6.60
2023-01-17T08:32:40.871Z,6.40
2023-01-17T08:35:09.916Z,5.70
2023-01-17T08:37:39.104Z,6.10
2023-01-17T08:40:07.833Z,5.30
2023-01-17T08:42:39.449Z,5.60
2023-01-17T08:45:10.229Z,7.00
2023-01-17T08:47:38.663Z,6.00
2023-01-17T08:50:07.280Z,7.30
2023-01-17T08:52:36.275Z,5.60
2023-01-17T08:55:06.465Z,7.20
2023-01-17T08:57:34.529Z,6.60
2023-01-17T09:00:03.034Z,6.90
2023-01-17T09:02:31.072Z,6.60
2023-01-17T09:05:01.040Z,5.20
2023-01-17T09:07:29.450Z,6.70
2023-01-17T09:09:57.458Z,7.30
2023-01-17T09:12:25.768Z,5.80
2023-01-17T09:14:53.960Z,6.10
2023-01-17T09:17:22.039Z,6.00
2023-01-17T09:19:50.269Z,5.40
2023-01-17T09:22:18.405Z,8.10
2023-01-17T09:24:46.454Z,14.00
2023-01-17T09:27:14.493Z,7.30
2023-01-17T09:29:42.752Z,6.20
2023-01-17T09:32:10.779Z,7.70
2023-01-17T09:34:38.796Z,6.10
2023-01-17T09:37:07.703Z,6.30
2023-01-17T09:39:35.701Z,9.80
2023-01-17T09:42:38.375Z,7.20
2023-01-17T09:45:16.294Z,6.20
2023-01-17T09:47:53.740Z,7.10
2023-01-17T09:50:43.752Z,5.90
2023-01-17T09:53:16.161Z,6.20
2023-01-17T09:55:53.081Z,7.10
2023-01-17T09:58:34.758Z,7.90
2023-01-17T10:02:03.812Z,8.20
2023-01-17T10:04:55.055Z,7.50
2023-01-17T10:07:29.251Z,8.00
2023-01-17T10:10:16.698Z,6.30
2023-01-17T10:13:00.780Z,7.60
2023-01-17T10:15:36.831Z,7.50
2023-01-17T10:18:49.649Z,7.70
2023-01-17T10:21:36.146Z,6.20
2023-01-17T10:24:30.442Z,9.60
2023-01-17T10:27:01.735Z,11.10
2023-01-17T10:29:35.139Z,7.60
2023-01-17T10:32:03.786Z,8.00
2023-01-17T10:34:44.339Z,7.20
2023-01-17T10:37:24.226Z,8.40
2023-01-17T10:39:56.144Z,8.50
2023-01-17T10:42:43.216Z,7.50
2023-01-17T10:45:29.234Z,7.30
2023-01-17T10:48:12.334Z,6.60
2023-01-17T10:51:32.140Z,8.60
2023-01-17T10:54:06.523Z,8.70
2023-01-17T10:56:36.439Z,12.20
2023-01-17T10:59:19.139Z,10.60
2023-01-17T11:01:49.192Z,9.40
2023-01-17T11:06:57.754Z,7.90
2023-01-17T11:09:38.955Z,6.40
2023-01-17T11:12:27.313Z,8.60
2023-01-17T11:15:01.595Z,7.40
2023-01-17T11:17:30.869Z,5.60
2023-01-17T11:20:23.619Z,6.30
2023-01-17T11:23:12.967Z,5.60
2023-01-17T11:25:49.017Z,6.70
2023-01-17T11:28:30.819Z,5.30
2023-01-17T11:31:07.987Z,6.80
2023-01-17T11:33:49.230Z,8.50
2023-01-17T11:36:30.156Z,6.80
2023-01-17T11:39:07.938Z,6.20
2023-01-17T11:41:41.603Z,7.00
2023-01-17T11:44:24.423Z,4.80
2023-01-17T11:47:08.940Z,4.10
2023-01-17T11:49:37.522Z,7.40
2023-01-17T11:52:30.007Z,5.50
2023-01-17T11:54:58.821Z,6.30
2023-01-17T11:57:31.396Z,5.20
2023-01-17T12:00:22.272Z,5.80
2023-01-17T12:03:20.753Z,5.70
2023-01-17T12:06:18.227Z,6.70
2023-01-17T12:09:11.526Z,6.20
2023-01-17T12:12:52.448Z,4.50
2023-01-17T12:15:31.912Z,5.00
2023-01-17T12:18:15.339Z,5.40
2023-01-17T12:21:20.724Z,4.60
2023-01-17T12:24:27.341Z,4.00
2023-01-17T12:27:20.579Z,5.10
2023-01-17T12:30:15.948Z,4.20
2023-01-17T12:32:53.167Z,3.90
2023-01-17T12:35:28.025Z,6.40
2023-01-17T12:38:05.231Z,4.40
2023-01-17T12:40:38.051Z,5.30
2023-01-17T12:43:26.280Z,4.50
2023-01-17T12:45:54.990Z,5.60
2023-01-17T12:48:31.157Z,4.30
2023-01-17T12:51:17.715Z,5.80
2023-01-17T12:53:54.938Z,4.70
2023-01-17T12:56:43.017Z,4.00
2023-01-17T12:59:45.159Z,6.70
2023-01-17T13:02:37.541Z,5.00
2023-01-17T13:05:15.724Z,8.70
2023-01-17T13:07:53.951Z,5.40
2023-01-17T13:10:25.501Z,5.20
2023-01-17T13:12:58.110Z,5.00
2023-01-17T13:15:32.528Z,5.20
2023-01-17T13:18:13.817Z,5.10
2023-01-17T13:21:04.800Z,5.00
2023-01-17T13:23:54.161Z,4.70
2023-01-17T13:26:50.824Z,4.00
2023-01-17T13:29:40.817Z,2.90
2023-01-17T13:32:33.870Z,5.40
2023-01-17T13:35:18.140Z,4.40
2023-01-17T13:38:08.172Z,5.50
2023-01-17T13:40:51.073Z,4.30
2023-01-17T13:43:30.325Z,6.70
2023-01-17T13:46:01.479Z,5.10
2023-01-17T13:48:32.313Z,5.40
2023-01-17T13:51:02.296Z,4.00
2023-01-17T13:53:39.563Z,6.40
2023-01-17T13:56:20.053Z,4.40
2023-01-17T13:58:50.108Z,4.70
2023-01-17T14:01:24.191Z,6.50
2023-01-17T14:03:52.678Z,4.70
2023-01-17T14:06:33.207Z,4.80
2023-01-17T14:09:15.323Z,4.90
2023-01-17T14:11:55.857Z,5.10
2023-01-17T14:14:44.745Z,3.60
2023-01-17T14:17:29.250Z,6.10
2023-01-17T14:20:19.316Z,4.20
2023-01-17T14:23:23.465Z,4.00
2023-01-17T14:25:52.814Z,4.00
2023-01-17T14:28:31.686Z,3.60
2023-01-17T14:31:03.012Z,4.30
2023-01-17T14:33:36.264Z,4.50
2023-01-17T14:36:19.928Z,6.40
2023-01-17T14:38:48.183Z,7.00
2023-01-17T14:41:23.221Z,4.30
2023-01-17T14:43:52.130Z,9.60
2023-01-17T14:46:27.901Z,5.60
2023-01-17T14:49:04.324Z,7.20
2023-01-17T14:51:37.232Z,5.50
2023-01-17T14:54:19.066Z,6.50
2023-01-17T14:56:47.929Z,3.50
2023-01-17T14:59:21.627Z,4.20
2023-01-17T15:02:07.683Z,5.70
2023-01-17T15:04:39.791Z,7.10
2023-01-17T15:07:15.871Z,5.40
2023-01-17T15:09:44.863Z,6.80
2023-01-17T15:12:16.734Z,6.70
2023-01-17T15:14:46.611Z,4.80
2023-01-17T15:17:24.624Z,5.80
2023-01-17T15:20:03.602Z,6.80
2023-01-17T15:22:33.061Z,8.70
2023-01-17T15:25:02.175Z,9.30
2023-01-17T15:27:30.547Z,7.10
2023-01-17T15:30:02.537Z,7.30
2023-01-17T15:32:33.329Z,7.70
2023-01-17T15:35:03.057Z,7.90
2023-01-17T15:37:33.027Z,6.20
2023-01-17T15:40:08.085Z,7.00
2023-01-17T15:42:39.432Z,7.20
2023-01-17T15:45:15.653Z,6.40
2023-01-17T15:47:44.085Z,5.40
2023-01-17T15:50:32.071Z,4.90
2023-01-17T15:53:04.846Z,6.80
2023-01-17T15:55:35.673Z,4.90
2023-01-17T15:58:22.073Z,5.90
2023-01-17T16:00:50.536Z,7.10
2023-01-17T16:03:27.513Z,4.00
2023-01-17T16:05:57.884Z,5.50
2023-01-17T16:08:38.938Z,5.70
2023-01-17T16:11:10.422Z,4.60
2023-01-17T16:13:39.390Z,4.50
2023-01-17T16:16:12.015Z,5.40
2023-01-17T16:18:40.878Z,4.30
2023-01-17T16:21:22.614Z,4.60
2023-01-17T16:23:51.748Z,6.70
2023-01-17T16:26:20.170Z,5.70
2023-01-17T16:28:49.215Z,5.80
2023-01-17T16:31:18.281Z,7.60
2023-01-17T16:33:49.176Z,5.70
2023-01-17T16:36:21.491Z,6.30
2023-01-17T16:38:51.474Z,6.50
2023-01-17T16:41:20.278Z,6.20
2023-01-17T16:43:57.657Z,7.40
2023-01-17T16:46:26.129Z,8.00
2023-01-17T16:48:54.249Z,8.50
2023-01-17T16:51:22.863Z,7.70
2023-01-17T16:53:51.245Z,8.80
2023-01-17T16:56:19.856Z,9.40
2023-01-17T16:58:48.031Z,10.00
2023-01-17T17:01:21.237Z,8.20
2023-01-17T17:03:50.238Z,21.60
2023-01-17T17:06:18.968Z,20.40
2023-01-17T17:08:47.722Z,27.40
2023-01-17T17:11:22.156Z,18.90
2023-01-17T17:13:51.749Z,54.80
2023-01-17T17:16:22.788Z,26.90
2023-01-17T17:21:24.010Z,19.90
2023-01-17T17:23:56.919Z,11.80
2023-01-17T17:26:32.070Z,11.50
2023-01-17T17:29:00.909Z,11.40
2023-01-17T17:31:29.260Z,10.80
2023-01-17T17:33:58.747Z,9.10
2023-01-17T17:36:27.182Z,10.20
2023-01-17T17:38:56.405Z,10.00
2023-01-17T17:41:29.213Z,16.40
2023-01-17T17:43:58.131Z,16.90
2023-01-17T17:46:27.482Z,24.00
2023-01-17T17:48:57.438Z,19.30
2023-01-17T17:51:31.181Z,19.70
2023-01-17T17:54:02.246Z,23.20
2023-01-17T17:56:32.273Z,19.60
2023-01-17T17:59:01.637Z,16.80
2023-01-17T18:01:30.603Z,13.20
2023-01-17T18:04:03.226Z,15.20
2023-01-17T18:06:31.227Z,11.70
2023-01-17T18:08:59.342Z,19.00
2023-01-17T18:11:29.143Z,20.70
2023-01-17T18:14:00.768Z,25.40
2023-01-17T18:16:32.575Z,20.80
2023-01-17T18:19:01.546Z,26.80
2023-01-17T18:21:33.146Z,38.50
2023-01-17T18:24:04.797Z,38.10
2023-01-17T18:26:36.086Z,42.30
2023-01-17T18:29:08.656Z,39.10
2023-01-17T18:31:37.305Z,35.80
2023-01-17T18:34:08.967Z,33.10
2023-01-17T18:36:38.033Z,38.10
2023-01-17T18:39:17.633Z,38.30
2023-01-17T18:41:45.909Z,42.60
2023-01-17T18:44:14.024Z,40.80
2023-01-17T18:46:43.295Z,37.30
2023-01-17T18:49:12.380Z,38.20
2023-01-17T18:51:41.211Z,41.10
2023-01-17T18:54:09.482Z,32.10
2023-01-17T18:56:37.566Z,32.80
2023-01-17T18:59:06.921Z,29.10
2023-01-17T19:01:36.534Z,26.70
2023-01-17T19:04:06.045Z,31.30
2023-01-17T19:06:39.988Z,26.30
2023-01-17T19:09:09.627Z,29.80
2023-01-17T19:11:38.092Z,34.90
2023-01-17T19:14:07.149Z,29.10
2023-01-17T19:16:39.502Z,29.50
2023-01-17T19:19:15.300Z,28.70
2023-01-17T19:21:43.723Z,29.30
2023-01-17T19:24:13.253Z,45.50
2023-01-17T19:26:42.852Z,36.20
2023-01-17T19:29:12.337Z,26.50
2023-01-17T19:31:43.291Z,24.80
2023-01-17T19:34:14.074Z,30.40
2023-01-17T19:36:42.918Z,29.50
2023-01-17T19:39:11.141Z,31.40
2023-01-17T19:41:44.697Z,31.40
2023-01-17T19:44:14.436Z,35.70
2023-01-17T19:46:42.666Z,31.60
2023-01-17T19:49:10.784Z,30.70
2023-01-17T19:51:39.712Z,34.80
2023-01-17T19:54:08.576Z,34.40
2023-01-17T19:56:37.426Z,32.40
2023-01-17T19:59:07.305Z,36.00
2023-01-17T20:01:35.532Z,41.30
2023-01-17T20:04:04.377Z,32.90
2023-01-17T20:06:35.583Z,35.80
2023-01-17T20:11:32.709Z,34.30
2023-01-17T20:14:01.258Z,33.30
2023-01-17T20:16:31.152Z,33.60
2023-01-17T20:19:00.264Z,30.80
2023-01-17T20:21:29.824Z,34.10
2023-01-17T20:23:59.723Z,29.60
2023-01-17T20:26:34.997Z,39.40
2023-01-17T20:29:10.793Z,36.50
2023-01-17T20:31:40.692Z,33.40
2023-01-17T20:34:11.623Z,42.20
2023-01-17T20:36:42.021Z,37.40
2023-01-17T20:39:13.018Z,32.50
2023-01-17T20:41:43.129Z,37.60
2023-01-17T20:44:15.430Z,31.50
2023-01-17T20:46:44.609Z,36.60
2023-01-17T20:49:19.089Z,43.90
2023-01-17T20:51:48.263Z,34.50
2023-01-17T20:54:21.085Z,36.80
2023-01-17T20:56:49.717Z,40.80
2023-01-17T20:59:22.446Z,31.70
2023-01-17T21:01:51.828Z,39.70
2023-01-17T21:04:25.677Z,61.20
2023-01-17T21:06:54.827Z,40.90
2023-01-17T21:09:23.440Z,51.40
2023-01-17T21:11:51.972Z,41.60
2023-01-17T21:14:21.857Z,36.50
2023-01-17T21:16:50.473Z,38.40
2023-01-17T21:19:18.626Z,36.80
2023-01-17T21:21:48.965Z,41.90
2023-01-17T21:24:19.257Z,57.00
2023-01-17T21:26:47.562Z,52.10
2023-01-17T21:29:16.359Z,46.70
2023-01-17T21:31:45.232Z,46.80
2023-01-17T21:34:13.878Z,49.10
2023-01-17T21:36:42.799Z,40.70
2023-01-17T21:39:17.276Z,43.40
2023-01-17T21:41:48.117Z,44.20
2023-01-17T21:44:21.595Z,38.90
2023-01-17T21:46:55.036Z,48.10
2023-01-17T21:49:24.657Z,51.40
2023-01-17T21:51:53.109Z,55.00
2023-01-17T21:54:47.286Z,48.10
2023-01-17T21:57:37.022Z,43.60
2023-01-17T22:00:06.921Z,42.90
2023-01-17T22:02:47.864Z,51.10
2023-01-17T22:05:18.530Z,46.90
2023-01-17T22:08:06.135Z,47.10
2023-01-17T22:10:44.617Z,51.90
2023-01-17T22:13:18.128Z,60.70
2023-01-17T22:15:46.632Z,48.30
2023-01-17T22:18:15.645Z,55.00
2023-01-17T22:20:43.711Z,43.40
2023-01-17T22:23:12.020Z,55.90
2023-01-17T22:25:40.062Z,44.70
2023-01-17T22:28:08.340Z,49.30
2023-01-17T22:30:36.421Z,58.30
2023-01-17T22:33:04.963Z,53.30
2023-01-17T22:35:33.020Z,49.80
2023-01-17T22:38:01.588Z,52.60
2023-01-17T22:40:31.608Z,56.20
2023-01-17T22:42:59.888Z,56.60
2023-01-17T22:45:29.077Z,46.50
2023-01-17T22:47:57.142Z,45.00
2023-01-17T22:50:25.161Z,52.40
2023-01-17T22:52:53.183Z,48.30
2023-01-17T22:55:21.660Z,48.30
2023-01-17T22:57:50.236Z,53.50
2023-01-17T23:00:18.596Z,42.50
2023-01-17T23:02:46.721Z,38.20
2023-01-17T23:05:15.009Z,41.20
2023-01-17T23:07:43.428Z,40.10
2023-01-17T23:10:34.091Z,38.60
2023-01-17T23:13:02.134Z,42.90
2023-01-17T23:15:48.557Z,43.30
2023-01-17T23:18:35.642Z,47.00
2023-01-17T23:21:04.019Z,39.90
2023-01-17T23:23:32.357Z,48.70
2023-01-17T23:26:01.331Z,43.10
2023-01-17T23:28:29.479Z,45.40
2023-01-17T23:31:03.228Z,43.80
2023-01-17T23:33:31.249Z,42.70
2023-01-17T23:35:59.282Z,42.60
2023-01-17T23:38:29.420Z,44.50
2023-01-17T23:41:27.048Z,41.50
2023-01-17T23:43:57.720Z,47.10
2023-01-17T23:46:27.017Z,39.90
2023-01-17T23:48:55.420Z,41.30
2023-01-17T23:51:23.518Z,44.00
2023-01-17T23:53:57.710Z,38.20
2023-01-17T23:56:25.931Z,38.70
2023-01-17T23:58:54.150Z,42.20
